Data for 10/17/2016

Time Sea-Level Adjusted Pressure Absolute Pressure Temperature Relative Humidity Dew Point   
(mb) (inHg) (mb) (inHg) (C) (F) (%) (C) (F)
00:05 1003 29.62 832 24.57 7.6 45.6 41 -4.8 23.4
00:10 1003 29.62 832 24.57 7.4 45.3 42 -4.6 23.7
00:15 1003 29.62 832 24.57 7.2 45 41 -5.1 22.9
00:20 1003 29.62 832 24.57 7.2 44.9 40 -5.4 22.3
00:25 1003 29.62 832 24.57 7.2 45 41 -5.2 22.7
00:30 1003 29.62 832 24.57 7.1 44.9 40 -5.6 21.9
00:35 1003 29.62 832 24.57 7.2 45 38 -6 21.2
00:40 1003 29.62 833 24.6 7.4 45.3 38 -5.9 21.4
00:45 1003 29.62 833 24.6 7.4 45.2 39 -5.8 21.6
00:50 1003 29.62 833 24.6 7.3 45.1 38 -6 21.2
00:55 1003 29.62 833 24.6 7.3 45.2 39 -5.8 21.6
01:00 1003 29.62 833 24.6 7.3 45.1 39 -5.8 21.5
01:05 1004 29.65 833 24.6 7.2 44.9 43 -4.5 24
01:10 1004 29.65 833 24.6 6.8 44.2 44 -4.6 23.7
01:15 1003 29.62 833 24.6 6.7 44.1 44 -4.7 23.5
01:20 1003 29.62 833 24.6 6.8 44.2 44 -4.6 23.8
01:25 1003 29.62 832 24.57 6.6 43.8 46 -4.2 24.4
01:30 1003 29.62 832 24.57 6.2 43.1 46 -4.5 23.9
01:35 1003 29.62 832 24.57 6.2 43.1 44 -5.2 22.6
01:40 1003 29.62 832 24.57 6.3 43.4 43 -5.3 22.5
01:45 1003 29.62 832 24.57 6.4 43.5 43 -5.2 22.7
01:50 1003 29.62 832 24.57 6.4 43.5 44 -5.1 22.9
01:55 1003 29.62 832 24.57 6.4 43.6 43 -5.1 22.8
02:00 1003 29.62 832 24.57 6.2 43.2 45 -5 23.1
02:05 1003 29.62 832 24.57 6.3 43.3 43 -5.5 22.2
02:10 1003 29.62 832 24.57 6.4 43.6 43 -5.1 22.7
02:15 1003 29.62 832 24.57 6.4 43.5 44 -5 22.9
02:20 1003 29.62 832 24.57 6.3 43.3 45 -4.8 23.3
02:25 1003 29.62 832 24.57 6.2 43.1 44 -5.2 22.7
02:30 1003 29.62 832 24.57 6.3 43.3 44 -5 23.1
02:35 1003 29.62 832 24.57 6.3 43.3 43 -5.3 22.4
02:40 1003 29.62 832 24.57 6.4 43.6 42 -5.6 22
02:45 1003 29.62 832 24.57 6.7 44 43 -5.1 22.8
02:50 1003 29.62 832 24.57 6.7 44 46 -4 24.7
02:55 1003 29.62 832 24.57 6.4 43.5 46 -4.4 24.1
03:00 1003 29.62 832 24.57 6.5 43.6 45 -4.6 23.8
03:05 1003 29.62 832 24.57 6.7 44 45 -4.6 23.8
03:10 1003 29.62 832 24.57 6.9 44.5 48 -3.2 26.3
03:15 1003 29.62 832 24.57 7.1 44.8 51 -2.4 27.6
03:20 1003 29.62 832 24.57 7.4 45.2 50 -2.3 27.8
03:25 1003 29.62 832 24.57 7.6 45.7 49 -2.5 27.4
03:30 1003 29.62 832 24.57 7.6 45.7 48 -2.7 27.1
03:35 1003 29.62 832 24.57 7.6 45.7 47 -3 26.5
03:40 1003 29.62 832 24.57 7.6 45.6 50 -2.1 28.1
03:45 1003 29.62 832 24.57 7.1 44.8 51 -2.4 27.7
03:50 1003 29.62 832 24.57 6.9 44.4 51 -2.4 27.7
03:55 1003 29.62 832 24.57 7 44.6 51 -2.4 27.7
04:00 1003 29.62 832 24.57 7 44.6 52 -2.3 27.9
04:05 1003 29.62 832 24.57 7 44.6 53 -2 28.4
04:10 1003 29.62 832 24.57 6.9 44.4 54 -1.8 28.8
04:15 1003 29.62 832 24.57 6.7 44.1 55 -1.7 28.9
04:20 1003 29.62 832 24.57 6.6 44 57 -1.3 29.7
04:25 1003 29.62 832 24.57 6.7 44 59 -0.8 30.6
04:30 1003 29.62 832 24.57 6.6 43.8 60 -0.5 31
04:35 1003 29.62 832 24.57 6.4 43.6 61 -0.4 31.3
04:40 1003 29.62 832 24.57 6.4 43.5 63 -0.1 31.9
04:45 1003 29.62 832 24.57 6.3 43.3 63 -0.2 31.6
04:50 1003 29.62 832 24.57 6.1 43 62 -0.5 31.1
04:55 1003 29.62 832 24.57 6.1 43.1 62 -0.5 31.1
05:00 1003 29.62 832 24.57 6.2 43.1 62 -0.5 31.2
05:05 1003 29.62 832 24.57 6.1 43 67 0.5 33
05:10 1003 29.62 832 24.57 5.9 42.5 68 0.5 32.8
05:15 1003 29.62 832 24.57 5.6 42.1 69 0.3 32.5
05:20 1003 29.62 832 24.57 5.5 42 69 0.4 32.7
05:25 1003 29.62 832 24.57 5.4 41.7 73 0.9 33.6
05:30 1003 29.62 833 24.6 5.3 41.5 72 0.7 33.2
05:35 1003 29.62 833 24.6 5.2 41.4 74 0.9 33.6
05:40 1004 29.65 833 24.6 5.2 41.3 74 1 33.8
05:45 1004 29.65 833 24.6 5.1 41.1 74 0.8 33.4
05:50 1004 29.65 833 24.6 5 41 76 1.2 34.2
05:55 1004 29.65 833 24.6 4.9 40.8 78 1.3 34.4
06:00 1004 29.65 833 24.6 4.8 40.7 78 1.3 34.4
06:05 1004 29.65 833 24.6 4.7 40.5 79 1.5 34.7
06:10 1004 29.65 833 24.6 4.7 40.4 79 1.4 34.5
06:15 1004 29.65 833 24.6 4.7 40.4 79 1.4 34.5
06:20 1004 29.65 833 24.6 4.6 40.4 80 1.5 34.7
06:25 1004 29.65 833 24.6 4.6 40.3 81 1.5 34.8
06:30 1004 29.65 833 24.6 4.6 40.2 81 1.6 34.8
06:35 1004 29.65 833 24.6 4.5 40.1 82 1.6 34.9
06:40 1004 29.65 833 24.6 4.5 40 82 1.6 34.8
06:45 1004 29.65 833 24.6 4.4 40 82 1.6 34.9
06:50 1004 29.65 833 24.6 4.4 40 82 1.7 35.1
06:55 1004 29.65 833 24.6 4.4 39.9 82 1.6 35
07:00 1004 29.65 833 24.6 4.4 39.9 82 1.7 35
07:05 1004 29.65 833 24.6 4.4 39.9 83 1.7 35
07:10 1004 29.65 833 24.6 4.4 39.8 83 1.7 35.1
07:15 1004 29.65 834 24.63 4.3 39.8 83 1.8 35.2
07:20 1004 29.65 834 24.63 4.3 39.8 83 1.7 35.1
07:25 1004 29.65 834 24.63 4.3 39.8 84 1.9 35.5
07:30 1004 29.65 834 24.63 4.4 39.9 82 1.7 35
07:35 1004 29.65 834 24.63 4.3 39.8 85 2 35.6
07:40 1005 29.68 834 24.63 4.2 39.6 86 2.1 35.7
07:45 1005 29.68 834 24.63 4.2 39.6 87 2.2 35.9
07:50 1005 29.68 834 24.63 4.2 39.5 86 2.1 35.8
07:55 1005 29.68 834 24.63 4.2 39.5 85 1.9 35.5
08:00 1005 29.68 834 24.63 4.3 39.7 84 1.8 35.3
08:05 1005 29.68 834 24.63 4.4 39.8 86 2.2 35.9
08:10 1005 29.68 834 24.63 4.4 39.9 86 2.3 36.2
08:15 1005 29.68 834 24.63 4.4 39.9 87 2.4 36.3
08:20 1005 29.68 834 24.63 4.4 39.9 87 2.4 36.3
08:25 1005 29.68 834 24.63 4.4 40 87 2.5 36.5
08:30 1005 29.68 834 24.63 4.5 40.1 87 2.6 36.6
08:35 1005 29.68 834 24.63 4.6 40.2 87 2.5 36.6
08:40 1005 29.68 834 24.63 4.7 40.4 86 2.6 36.7
08:45 1005 29.68 834 24.63 4.8 40.6 84 2.3 36.1
08:50 1005 29.68 835 24.66 4.8 40.6 85 2.5 36.6
08:55 1005 29.68 835 24.66 4.8 40.6 85 2.5 36.5
09:00 1005 29.68 835 24.66 4.7 40.4 86 2.6 36.6
09:05 1006 29.71 835 24.66 4.6 40.3 86 2.5 36.5
09:10 1006 29.71 835 24.66 4.7 40.4 87 2.7 36.9
09:15 1006 29.71 835 24.66 4.7 40.5 86 2.6 36.6
09:20 1006 29.71 835 24.66 4.9 40.8 86 2.7 36.9
09:25 1006 29.71 835 24.66 5 41 85 2.7 36.9
09:30 1006 29.71 835 24.66 5.1 41.1 84 2.6 36.6
09:35 1006 29.71 835 24.66 4.9 40.8 83 2.3 36.1
09:40 1006 29.71 835 24.66 4.6 40.4 86 2.5 36.5
09:45 1006 29.71 836 24.69 4.6 40.3 87 2.6 36.7
09:50 1007 29.74 836 24.69 4.5 40.1 88 2.7 36.9
09:55 1007 29.74 837 24.72 4.2 39.6 87 2.3 36.2
10:00 1007 29.74 837 24.72 3.3 38 88 1.5 34.7
10:05 1007 29.74 836 24.69 3.1 37.6 87 1.2 34.1
10:10 1007 29.74 837 24.72 3.5 38.3 86 1.3 34.3
10:15 1008 29.77 837 24.72 3.7 38.7 86 1.6 34.8
10:20 1008 29.77 837 24.72 3.9 39 85 1.6 34.9
10:25 1008 29.77 837 24.72 4.1 39.3 86 1.9 35.4
10:30 1008 29.77 837 24.72 4.3 39.7 85 1.9 35.5
10:35 1008 29.77 837 24.72 4.2 39.6 87 2.2 36
10:40 1008 29.77 837 24.72 4.3 39.8 86 2.1 35.8
10:45 1008 29.77 837 24.72 4.2 39.6 85 2 35.6
10:50 1008 29.77 837 24.72 4 39.2 85 1.7 35
10:55 1008 29.77 837 24.72 4.1 39.3 84 1.6 34.9
11:00 1008 29.77 837 24.72 4.4 40 85 2.1 35.8
11:05 1008 29.77 838 24.75 4.7 40.5 83 2 35.7
11:10 1008 29.77 838 24.75 5 41 79 1.7 35.1
11:15 1009 29.8 838 24.75 5.4 41.7 78 1.8 35.2
11:20 1009 29.8 838 24.75 5.6 42 79 2.3 36.1
11:25 1009 29.8 838 24.75 5.7 42.3 78 2.3 36.1
11:30 1009 29.8 838 24.75 6 42.9 75 1.9 35.5
11:35 1009 29.8 838 24.75 6.4 43.5 75 2.3 36.1
11:40 1009 29.8 838 24.75 6.7 44 75 2.5 36.6
11:45 1009 29.8 838 24.75 7 44.6 74 2.6 36.7
11:50 1009 29.8 838 24.75 7.4 45.2 72 2.7 36.8
11:55 1009 29.8 838 24.75 7.4 45.4 72 2.7 36.8
12:00 1009 29.8 838 24.75 7.7 45.9 72 2.9 37.3
12:05 1009 29.8 838 24.75 7.8 46.1 70 2.8 37
12:10 1009 29.8 839 24.78 8 46.3 68 2.6 36.6
12:15 1009 29.8 839 24.78 7.7 45.8 71 2.8 37.1
12:20 1009 29.8 839 24.78 7.7 45.9 70 2.6 36.6
12:25 1009 29.8 839 24.78 8 46.4 69 2.7 36.8
12:30 1009 29.8 839 24.78 8.2 46.8 67 2.4 36.4
12:35 1010 29.83 839 24.78 8.3 47 67 2.5 36.5
12:40 1010 29.83 839 24.78 8.3 47 68 2.7 36.9
12:45 1010 29.83 839 24.78 8.4 47 68 2.9 37.2
12:50 1010 29.83 839 24.78 8.3 47 66 2.5 36.5
12:55 1010 29.83 839 24.78 8.5 47.3 54 -0.4 31.4
13:00 1010 29.83 839 24.78 8.9 48 52 -0.3 31.4
13:05 1010 29.83 839 24.78 9.1 48.5 50 -0.6 30.9
13:10 1010 29.83 839 24.78 9.2 48.6 48 -1.1 30
13:15 1010 29.83 839 24.78 9.1 48.4 48 -1.3 29.7
13:20 1010 29.83 839 24.78 9.7 49.5 45 -1.6 29.1
13:25 1010 29.83 839 24.78 9.7 49.4 43 -2.2 28.1
13:30 1010 29.83 839 24.78 9.7 49.4 44 -1.9 28.6
13:35 1010 29.83 839 24.78 10.1 50.1 40 -2.8 27
13:40 1010 29.83 839 24.78 9.7 49.4 42 -2.7 27.2
13:45 1010 29.83 839 24.78 9.6 49.2 42 -2.6 27.3
13:50 1010 29.83 839 24.78 9.6 49.2 43 -2.4 27.8
13:55 1010 29.83 839 24.78 9.8 49.6 41 -2.9 26.8
14:00 1010 29.83 839 24.78 9.6 49.2 41 -3.1 26.4
14:05 1010 29.83 840 24.81 9.6 49.2 38 -3.9 25
14:10 1010 29.83 840 24.81 9.8 49.6 40 -3.1 26.4
14:15 1010 29.83 840 24.81 9.8 49.6 40 -3.1 26.5
14:20 1011 29.85 840 24.81 9.5 49 43 -2.4 27.7
14:25 1011 29.85 840 24.81 9.2 48.5 44 -2.3 27.8
14:30 1011 29.85 840 24.81 9.2 48.6 44 -2.4 27.6
14:35 1011 29.85 840 24.81 9.2 48.5 45 -2.3 27.9
14:40 1011 29.85 840 24.81 9.5 49.1 43 -2.4 27.6
14:45 1011 29.85 840 24.81 9.7 49.5 43 -2.1 28.2
14:50 1011 29.85 840 24.81 9.7 49.5 43 -2.4 27.7
14:55 1011 29.85 840 24.81 9.7 49.5 41 -2.8 27
15:00 1011 29.85 840 24.81 9.8 49.7 40 -3.3 26.1
15:05 1011 29.85 840 24.81 9.7 49.5 41 -2.9 26.8
15:10 1011 29.85 840 24.81 9.8 49.6 40 -3.1 26.5
15:15 1011 29.85 840 24.81 9.6 49.3 42 -2.7 27.1
15:20 1011 29.85 840 24.81 9.2 48.6 43 -2.6 27.2
15:25 1011 29.85 840 24.81 9.1 48.4 43 -2.9 26.8
15:30 1011 29.85 840 24.81 8.8 47.9 42 -3.3 26
15:35 1011 29.85 840 24.81 8.9 48 42 -3.5 25.8
15:40 1011 29.85 840 24.81 9 48.1 41 -3.6 25.5
15:45 1011 29.85 840 24.81 9.1 48.4 40 -3.7 25.4
15:50 1011 29.85 840 24.81 9.3 48.7 39 -3.8 25.1
15:55 1011 29.85 840 24.81 9.3 48.8 40 -3.4 25.9
16:00 1011 29.85 840 24.81 9.5 49.1 38 -4 24.8
16:05 1011 29.85 840 24.81 9.5 49.1 37 -4.3 24.3
16:10 1011 29.85 840 24.81 9.5 49.2 37 -4.4 24
16:15 1011 29.85 840 24.81 9.5 49.2 38 -3.9 25
16:20 1011 29.85 841 24.83 9.4 48.9 39 -3.8 25.2
16:25 1011 29.85 841 24.83 9.3 48.7 38 -4.3 24.3
16:30 1011 29.85 841 24.83 9.7 49.5 35 -4.9 23.1
16:35 1011 29.85 841 24.83 9.6 49.4 37 -4.4 24
16:40 1011 29.85 841 24.83 9.4 48.9 37 -4.5 23.8
16:45 1012 29.88 841 24.83 9.3 48.7 39 -4.1 24.6
16:50 1012 29.88 841 24.83 9.2 48.5 38 -4.3 24.2
16:55 1012 29.88 841 24.83 9.1 48.5 39 -4.1 24.6
17:00 1012 29.88 841 24.83 9.1 48.4 39 -4.2 24.5
17:05 1012 29.88 841 24.83 9 48.2 39 -4.3 24.3
17:10 1012 29.88 841 24.83 9 48.1 40 -4 24.7
17:15 1012 29.88 841 24.83 9 48.1 40 -4 24.7
17:20 1012 29.88 841 24.83 9 48.1 39 -4.2 24.4
17:25 1012 29.88 841 24.83 8.9 48 40 -4 24.9
17:30 1012 29.88 841 24.83 8.8 47.8 39 -4.2 24.4
17:35 1012 29.88 841 24.83 8.7 47.6 39 -4.5 23.9
17:40 1012 29.88 841 24.83 8.7 47.6 38 -4.8 23.4
17:45 1012 29.88 841 24.83 8.7 47.6 37 -5.3 22.5
17:50 1012 29.88 841 24.83 8.8 47.8 37 -5.2 22.7
17:55 1012 29.88 841 24.83 8.7 47.6 38 -4.8 23.3
18:00 1012 29.88 841 24.83 8.5 47.3 39 -4.8 23.4
18:05 1012 29.88 841 24.83 8.4 47.1 39 -4.6 23.7
18:10 1012 29.88 842 24.86 8.3 46.9 41 -4.2 24.4
18:15 1013 29.91 842 24.86 8.1 46.6 41 -4.4 24.1
18:20 1013 29.91 842 24.86 8 46.5 42 -4.2 24.5
18:25 1013 29.91 842 24.86 8 46.3 44 -3.7 25.4
18:30 1013 29.91 842 24.86 7.9 46.2 45 -3.2 26.3
18:35 1013 29.91 842 24.86 7.6 45.6 47 -3 26.5
18:40 1013 29.91 842 24.86 7.5 45.4 47 -3.2 26.3
18:45 1013 29.91 842 24.86 7.4 45.3 48 -2.9 26.8
18:50 1013 29.91 842 24.86 7.3 45.2 49 -2.7 27.1
18:55 1013 29.91 842 24.86 7.4 45.4 49 -2.7 27.2
19:00 1013 29.91 842 24.86 7.4 45.3 50 -2.4 27.6
19:05 1013 29.91 842 24.86 7.3 45.1 50 -2.4 27.6
19:10 1013 29.91 842 24.86 7.1 44.8 51 -2.2 28
19:15 1013 29.91 842 24.86 7 44.6 50 -2.7 27.1
19:20 1013 29.91 842 24.86 6.7 44.1 52 -2.5 27.5
19:25 1013 29.91 842 24.86 6.6 43.9 50 -3.1 26.3
19:30 1013 29.91 842 24.86 6.7 44.1 51 -2.7 27.1
19:35 1013 29.91 842 24.86 6.6 43.9 51 -2.9 26.8
19:40 1013 29.91 842 24.86 6.7 44 50 -2.9 26.8
19:45 1013 29.91 842 24.86 6.7 44.1 49 -3.2 26.2
19:50 1013 29.91 842 24.86 6.8 44.2 48 -3.5 25.7
19:55 1013 29.91 843 24.89 6.9 44.3 48 -3.4 26
20:00 1013 29.91 843 24.89 6.7 44 47 -3.8 25.2
20:05 1013 29.91 843 24.89 6.6 44 48 -3.6 25.6
20:10 1013 29.91 843 24.89 6.5 43.7 49 -3.4 25.9
20:15 1014 29.94 843 24.89 6.3 43.3 50 -3.3 26.1
20:20 1014 29.94 843 24.89 6.4 43.4 49 -3.4 25.8
20:25 1014 29.94 843 24.89 6.4 43.6 50 -3.2 26.3
20:30 1014 29.94 843 24.89 6.4 43.5 50 -3.1 26.4
20:35 1014 29.94 843 24.89 6.3 43.3 50 -3.2 26.2
20:40 1014 29.94 843 24.89 6.3 43.4 51 -3 26.6
20:45 1014 29.94 843 24.89 6.3 43.3 50 -3.4 26
20:50 1014 29.94 843 24.89 6.3 43.4 50 -3.3 26.1
20:55 1014 29.94 843 24.89 6.3 43.3 51 -3.2 26.3
21:00 1014 29.94 843 24.89 6.2 43.2 52 -3 26.6
21:05 1014 29.94 843 24.89 6.3 43.3 51 -3.1 26.4
21:10 1014 29.94 843 24.89 6.3 43.4 52 -2.9 26.7
21:15 1014 29.94 843 24.89 6.2 43.2 53 -2.7 27.1
21:20 1014 29.94 843 24.89 6.2 43.1 51 -3.1 26.5
21:25 1014 29.94 843 24.89 6.4 43.4 50 -3.4 26
21:30 1014 29.94 843 24.89 6.6 43.8 50 -3.1 26.4
21:35 1014 29.94 843 24.89 6.6 43.8 50 -3.2 26.3
21:40 1014 29.94 844 24.92 6.6 43.8 50 -3.1 26.5
21:45 1014 29.94 844 24.92 6.7 44.1 48 -3.5 25.8
21:50 1015 29.97 844 24.92 6.8 44.2 49 -3.1 26.3
21:55 1015 29.97 844 24.92 6.8 44.2 49 -3.2 26.2
22:00 1015 29.97 844 24.92 6.7 44.1 50 -3.1 26.4
22:05 1015 29.97 844 24.92 6.6 43.9 50 -3 26.6
22:10 1015 29.97 844 24.92 6.6 43.8 50 -3.2 26.2
22:15 1015 29.97 844 24.92 6.7 44 49 -3.2 26.3
22:20 1015 29.97 844 24.92 6.6 44 50 -3.2 26.3
22:25 1015 29.97 844 24.92 6.6 44 48 -3.7 25.4
22:30 1015 29.97 844 24.92 6.7 44.1 48 -3.5 25.7
22:35 1015 29.97 844 24.92 6.7 44 48 -3.6 25.6
22:40 1015 29.97 844 24.92 6.7 44.1 45 -4.3 24.3
22:45 1015 29.97 844 24.92 6.9 44.5 44 -4.4 24.1
22:50 1015 29.97 844 24.92 7 44.6 43 -4.7 23.6
22:55 1015 29.97 844 24.92 7.1 44.7 44 -4.4 24
23:00 1015 29.97 844 24.92 7 44.5 45 -4.2 24.4
23:05 1015 29.97 844 24.92 6.8 44.2 46 -4.2 24.5
23:10 1015 29.97 844 24.92 6.7 44.1 45 -4.5 23.9
23:15 1015 29.97 844 24.92 6.7 44.1 45 -4.4 24.1
23:20 1015 29.97 844 24.92 6.7 44 45 -4.5 23.9
23:25 1015 29.97 844 24.92 6.6 43.9 45 -4.4 24
23:30 1015 29.97 844 24.92 6.6 43.8 45 -4.6 23.7
23:35 1015 29.97 844 24.92 6.6 43.8 44 -4.7 23.5
23:40 1015 29.97 844 24.92 6.6 44 44 -4.8 23.3
23:45 1015 29.97 844 24.92 6.7 44 45 -4.5 23.8
23:50 1015 29.97 844 24.92 6.6 43.9 44 -4.6 23.7
23:55 1015 29.97 844 24.92 6.6 43.8 46 -4.3 24.2
24:00 1015 29.97 844 24.92 6.5 43.7 46 -4.3 24.3